עמוד ראשי
METAR-TAF:

METAR-TAF

שדות תעופה :

יקוטסק, רוסיה

קו רוחב: 62-01N, קו אורך: 129-43E, גובה: 103מטר

תצפית מזג אוויר נוכחית

הדו"ח נערך לפני 20דקות, בשעה 11:30 UTC
רוח 6קשר מכיוון מערב
טמפרטורת 3 צלסיוס
לחות 81%
לחץ 1013 hPa
ראות 10 קילומטר או יותר
עננים פזורים בגובה 4000רגל , קומולונימבוס.

METAR: UEEE 171130Z 27003MPS 9999 SCT040CB 03/00 Q1013 R23/09//60 NOSIG RMK QFE751

זמן: 20:50 (11:50 UTC)

תחזית

הדו"ח נערך לפני 50דקות, בשעה 11:00 UTC
תחזית בתוקף מ 17 ב 12 UTC עד 18 ב 18 UTC
רוח 6קשר מכיוון מערב עם משבים עד 16קשר
ראות 10 קילומטר או יותר
עננים פזורים בגובה 2000רגל , קומולונימבוס.
זמנית מ -
17 ב 12 UTC עד 17 ב 21 UTC
ראות: 2100מטר
עננים פזורים בגובה 1000רגל
עננים בינוניים בגובה 2000רגל , קומולונימבוס.
ממטרי שלג קלים,

TAF: UEEE 171100Z 1712/1818 26003G08MPS 9999 SCT020CB TEMPO 1712/1721 2100 -SHSN SCT010 BKN020CB

תצפיות ותחזיות מזג אוויר לגבי יותר מ- 4,000 שדות תעופה ברחבי העולם. דוחות METAR ו- TAF.

התחנות הזמינות מסומנות בנקודות צהובות ואדומות על גבי המפה.

העבר את העכבר לנקודה הצבעונית על מנת לראות את שם התחנה.

לאחר מכן, לחץ כדי לראות את תוכן ואת תחזיות מזג האוויר.

כדי לשנות את המפה: לחץ על הכפתורים הירוקים עם הפלוס השחור כדי להתקרב; על הכפתור הירוק עם המקף כדי להתרחק; או בחיצים הירוקים למפות סמוכות.


METAR-TAF: